Terminal Aerodrome Forecast
Issued by NWS

Home | Current Version | Previous Version | Text Only | Print | Product List | Glossary On
Versions: 1 2 3 4 5 6 7 8 9 10 11 12 13 14
000
FTUS42 TJSJ 211740
TAFNCM
TAF
TNCM 211740Z 2118/2218 09014KT P6SM VCSH SCT022 SCT035
     FM212200 09011KT P6SM FEW019 SCT050
     FM220500 08011KT P6SM VCSH SCT018 SCT035
     FM221400 10014KT P6SM SCT024=

USA.gov is the U.S. government's official web portal to all federal, state and local government web resources and services.